createdAt,value
2018-12-20T00:00:16.828Z,25.70
2018-12-20T00:01:16.952Z,25.60
2018-12-20T00:02:16.821Z,26.20
2018-12-20T00:03:16.893Z,26.30
2018-12-20T00:04:16.782Z,25.50
2018-12-20T00:05:16.797Z,26.10
2018-12-20T00:06:16.988Z,25.50
2018-12-20T00:07:16.860Z,26.00
2018-12-20T00:08:16.757Z,26.30
2018-12-20T00:09:16.743Z,26.70
2018-12-20T00:10:16.718Z,26.80
2018-12-20T00:11:16.790Z,27.10
2018-12-20T00:12:16.827Z,26.40
2018-12-20T00:13:16.801Z,26.10
2018-12-20T00:14:16.675Z,25.40
2018-12-20T00:15:16.730Z,25.80
2018-12-20T00:16:16.675Z,26.50
2018-12-20T00:17:16.655Z,26.60
2018-12-20T00:18:16.676Z,27.10
2018-12-20T00:19:16.623Z,26.30
2018-12-20T00:20:16.615Z,26.10
2018-12-20T00:21:16.600Z,26.00
2018-12-20T00:22:16.611Z,28.00
2018-12-20T00:23:16.605Z,26.80
2018-12-20T00:24:16.680Z,25.90
2018-12-20T00:25:16.606Z,26.40
2018-12-20T00:26:16.623Z,26.50
2018-12-20T00:27:16.634Z,26.50
2018-12-20T00:28:16.566Z,27.10
2018-12-20T00:29:16.635Z,26.20
2018-12-20T00:30:16.554Z,26.90
2018-12-20T00:31:16.498Z,26.50
2018-12-20T00:32:16.507Z,26.80
2018-12-20T00:33:16.507Z,27.40
2018-12-20T00:34:16.653Z,27.80
2018-12-20T00:35:16.455Z,26.50
2018-12-20T00:36:16.708Z,26.80
2018-12-20T00:37:16.430Z,26.60
2018-12-20T00:38:16.434Z,25.90
2018-12-20T00:39:16.423Z,26.40
2018-12-20T00:40:16.408Z,26.90
2018-12-20T00:41:16.442Z,26.70
2018-12-20T00:42:16.482Z,25.70
2018-12-20T00:43:16.449Z,26.30
2018-12-20T00:44:16.372Z,27.80
2018-12-20T00:45:16.575Z,27.80
2018-12-20T00:46:16.487Z,27.70
2018-12-20T00:47:16.331Z,27.80
2018-12-20T00:48:16.396Z,26.40
2018-12-20T00:49:16.303Z,28.90
2018-12-20T00:50:16.430Z,27.40
2018-12-20T00:51:16.429Z,26.50
2018-12-20T00:52:16.396Z,27.10
2018-12-20T00:53:16.303Z,26.40
2018-12-20T00:54:16.266Z,26.90
2018-12-20T00:55:16.266Z,26.60
2018-12-20T00:56:16.255Z,27.50
2018-12-20T00:57:16.376Z,27.70
2018-12-20T00:58:16.253Z,27.20
2018-12-20T00:59:16.197Z,26.50
2018-12-20T01:00:16.276Z,27.30
2018-12-20T01:01:16.210Z,26.40
2018-12-20T01:02:16.297Z,26.90
2018-12-20T01:03:16.238Z,26.70
2018-12-20T01:04:16.172Z,28.40
2018-12-20T01:05:16.140Z,27.90
2018-12-20T01:06:16.133Z,28.40
2018-12-20T01:07:16.257Z,27.50
2018-12-20T01:08:16.279Z,26.70
2018-12-20T01:09:16.302Z,27.40
2018-12-20T01:10:16.116Z,27.70
2018-12-20T01:11:16.223Z,26.90
2018-12-20T01:12:16.199Z,29.50
2018-12-20T01:13:16.098Z,27.80
2018-12-20T01:14:16.051Z,27.90
2018-12-20T01:15:16.039Z,27.30
2018-12-20T01:16:16.148Z,27.90
2018-12-20T01:17:16.008Z,27.90
2018-12-20T01:18:16.204Z,28.90
2018-12-20T01:19:16.031Z,27.50
2018-12-20T01:20:15.985Z,28.80
2018-12-20T01:21:16.055Z,26.80
2018-12-20T01:22:15.954Z,27.20
2018-12-20T01:23:16.070Z,28.40
2018-12-20T01:24:15.965Z,27.80
2018-12-20T01:25:15.956Z,27.20
2018-12-20T01:26:15.924Z,27.10
2018-12-20T01:27:16.045Z,28.00
2018-12-20T01:28:15.893Z,27.40
2018-12-20T01:29:15.983Z,27.50
2018-12-20T01:30:15.878Z,27.60
2018-12-20T01:31:16.017Z,27.80
2018-12-20T01:32:15.959Z,28.70
2018-12-20T01:33:15.846Z,28.00
2018-12-20T01:34:16.019Z,26.80
2018-12-20T01:35:15.850Z,27.60
2018-12-20T01:36:15.857Z,27.80
2018-12-20T01:37:15.881Z,29.60
2018-12-20T01:38:16.027Z,28.90
2018-12-20T01:39:15.925Z,28.40
2018-12-20T01:40:15.866Z,28.00
2018-12-20T01:41:15.822Z,28.10
2018-12-20T01:42:15.752Z,27.80
2018-12-20T01:43:15.841Z,28.10
2018-12-20T01:44:15.760Z,29.00
2018-12-20T01:45:15.832Z,28.00
2018-12-20T01:46:15.714Z,27.80
2018-12-20T01:47:15.873Z,28.00
2018-12-20T01:48:15.680Z,27.90
2018-12-20T01:49:15.700Z,27.60
2018-12-20T01:50:15.793Z,28.70
2018-12-20T01:51:15.838Z,28.80
2018-12-20T01:52:15.695Z,28.10
2018-12-20T01:53:15.735Z,27.80
2018-12-20T01:54:15.825Z,28.40
2018-12-20T01:55:15.607Z,29.60
2018-12-20T01:56:15.794Z,28.30
2018-12-20T01:57:15.606Z,29.40
2018-12-20T01:58:15.582Z,29.60
2018-12-20T01:59:15.600Z,28.20
2018-12-20T02:00:15.568Z,29.30
2018-12-20T02:01:15.669Z,29.50
2018-12-20T02:02:15.568Z,28.20
2018-12-20T02:03:15.624Z,28.10
2018-12-20T02:04:15.717Z,27.80
2018-12-20T02:05:15.517Z,30.60
2018-12-20T02:06:15.677Z,27.90
2018-12-20T02:07:15.526Z,28.90
2018-12-20T02:08:15.511Z,28.50
2018-12-20T02:09:15.485Z,29.60
2018-12-20T02:10:15.710Z,28.10
2018-12-20T02:11:15.454Z,28.60
2018-12-20T02:12:15.435Z,28.20
2018-12-20T02:13:15.424Z,28.60
2018-12-20T02:14:15.589Z,28.80
2018-12-20T02:15:15.519Z,29.10
2018-12-20T02:16:15.389Z,29.70
2018-12-20T02:17:15.374Z,29.20
2018-12-20T02:18:15.372Z,29.00
2018-12-20T02:19:15.406Z,28.70
2018-12-20T02:20:15.484Z,28.30
2018-12-20T02:21:15.377Z,29.80
2018-12-20T02:22:15.419Z,28.90
2018-12-20T02:23:15.315Z,28.10
2018-12-20T02:24:15.488Z,29.90
2018-12-20T02:25:15.310Z,29.10
2018-12-20T02:26:15.451Z,30.40
2018-12-20T02:27:15.304Z,28.90
2018-12-20T02:28:15.260Z,30.30
2018-12-20T02:29:15.422Z,29.50
2018-12-20T02:30:15.512Z,29.40
2018-12-20T02:31:15.451Z,29.00
2018-12-20T02:32:15.228Z,28.70
2018-12-20T02:33:15.207Z,29.90
2018-12-20T02:34:15.225Z,29.70
2018-12-20T02:35:15.220Z,29.40
2018-12-20T02:36:15.205Z,28.90
2018-12-20T02:37:15.194Z,29.70
2018-12-20T02:38:15.275Z,28.40
2018-12-20T02:39:15.358Z,29.90
2018-12-20T02:40:15.281Z,30.40
2018-12-20T02:41:15.254Z,30.40
2018-12-20T02:42:15.130Z,29.90
2018-12-20T02:43:15.349Z,29.20
2018-12-20T02:44:15.274Z,29.90
2018-12-20T02:45:15.120Z,30.20
2018-12-20T02:46:15.216Z,30.90
2018-12-20T02:47:15.066Z,29.50
2018-12-20T02:48:15.061Z,31.40
2018-12-20T02:49:15.344Z,29.40
2018-12-20T02:50:15.056Z,30.90
2018-12-20T02:51:15.372Z,30.20
2018-12-20T02:52:15.190Z,29.70
2018-12-20T02:53:15.002Z,31.00
2018-12-20T02:54:15.010Z,30.30
2018-12-20T02:55:15.000Z,29.90
2018-12-20T02:56:15.174Z,30.20
2018-12-20T02:57:14.964Z,30.80
2018-12-20T02:58:14.969Z,29.10
2018-12-20T02:59:14.969Z,31.00
2018-12-20T03:00:14.987Z,30.10
2018-12-20T03:01:14.931Z,29.70
2018-12-20T03:02:15.023Z,30.50
2018-12-20T03:03:14.899Z,30.90
2018-12-20T03:04:14.881Z,30.40
2018-12-20T03:05:14.881Z,31.70
2018-12-20T03:06:15.004Z,30.70
2018-12-20T03:07:15.129Z,30.20
2018-12-20T03:08:14.853Z,28.70
2018-12-20T03:09:14.858Z,29.70
2018-12-20T03:10:14.818Z,30.50
2018-12-20T03:11:15.006Z,30.40
2018-12-20T03:12:14.797Z,31.40
2018-12-20T03:13:14.826Z,29.70
2018-12-20T03:14:14.873Z,31.40
2018-12-20T03:15:19.975Z,31.30
2018-12-20T03:16:15.804Z,30.60
2018-12-20T03:17:14.753Z,29.90
2018-12-20T03:18:14.743Z,30.40
2018-12-20T03:19:14.977Z,31.10
2018-12-20T03:20:14.715Z,31.80
2018-12-20T03:21:14.851Z,31.10
2018-12-20T03:22:14.779Z,31.00
2018-12-20T03:23:14.926Z,30.50
2018-12-20T03:24:14.794Z,31.40
2018-12-20T03:25:14.671Z,30.90
2018-12-20T03:26:14.757Z,32.80
2018-12-20T03:27:14.640Z,31.40
2018-12-20T03:28:14.904Z,32.00
2018-12-20T03:29:14.747Z,31.20
2018-12-20T03:30:14.707Z,31.80
2018-12-20T03:31:14.964Z,31.40
2018-12-20T03:32:14.591Z,32.00
2018-12-20T03:33:14.717Z,32.20
2018-12-20T03:34:14.635Z,31.30
2018-12-20T03:35:14.555Z,31.80
2018-12-20T03:36:14.700Z,31.20
2018-12-20T03:37:14.603Z,31.40
2018-12-20T03:38:14.791Z,33.50
2018-12-20T03:39:14.630Z,33.20
2018-12-20T03:40:14.624Z,31.90
2018-12-20T03:41:14.590Z,31.40
2018-12-20T03:42:14.489Z,31.50
2018-12-20T03:43:14.647Z,31.10
2018-12-20T03:44:14.475Z,31.70
2018-12-20T03:45:14.479Z,29.80
2018-12-20T03:46:14.486Z,31.30
2018-12-20T03:47:14.584Z,31.50
2018-12-20T03:48:14.477Z,32.00
2018-12-20T03:49:14.527Z,32.80
2018-12-20T03:50:14.397Z,31.50
2018-12-20T03:51:14.403Z,31.70
2018-12-20T03:52:14.393Z,31.40
2018-12-20T03:53:14.752Z,32.80
2018-12-20T03:54:14.394Z,31.90
2018-12-20T03:55:14.346Z,31.90
2018-12-20T03:56:14.399Z,30.80
2018-12-20T03:57:14.527Z,32.00
2018-12-20T03:58:14.327Z,32.50
2018-12-20T03:59:14.306Z,32.30
2018-12-20T04:00:14.465Z,31.80
2018-12-20T04:01:14.414Z,31.40
2018-12-20T04:02:14.297Z,32.50
2018-12-20T04:03:14.267Z,30.90
2018-12-20T04:04:14.286Z,32.40
2018-12-20T04:05:14.393Z,32.20
2018-12-20T04:06:14.305Z,32.00
2018-12-20T04:07:14.234Z,31.60
2018-12-20T04:08:14.439Z,31.80
2018-12-20T04:09:14.243Z,31.90
2018-12-20T04:10:14.203Z,32.60
2018-12-20T04:11:14.312Z,33.00
2018-12-20T04:12:14.372Z,32.50
2018-12-20T04:13:14.286Z,39.10
2018-12-20T04:14:14.179Z,32.30
2018-12-20T04:15:14.380Z,32.30
2018-12-20T04:16:14.239Z,33.20
2018-12-20T04:17:14.161Z,31.60
2018-12-20T04:18:14.341Z,32.70
2018-12-20T04:19:14.325Z,31.20
2018-12-20T04:20:14.084Z,32.60
2018-12-20T04:21:14.079Z,31.00
2018-12-20T04:22:14.465Z,32.20
2018-12-20T04:23:14.052Z,31.60
2018-12-20T04:24:14.057Z,31.30
2018-12-20T04:25:14.072Z,31.50
2018-12-20T04:26:14.109Z,32.70
2018-12-20T04:27:14.191Z,31.20
2018-12-20T04:28:14.314Z,33.20
2018-12-20T04:29:14.174Z,31.10
2018-12-20T04:30:14.036Z,33.10
2018-12-20T04:31:13.994Z,32.30
2018-12-20T04:32:14.178Z,32.80
2018-12-20T04:33:14.143Z,32.30
2018-12-20T04:34:14.018Z,32.60
2018-12-20T04:35:13.933Z,33.40
2018-12-20T04:36:14.180Z,33.50
2018-12-20T04:37:14.270Z,33.60
2018-12-20T04:38:13.963Z,32.90
2018-12-20T04:39:14.152Z,31.70
2018-12-20T04:40:14.122Z,32.30
2018-12-20T04:41:13.943Z,33.40
2018-12-20T04:42:13.876Z,32.00
2018-12-20T04:43:13.852Z,32.80
2018-12-20T04:44:14.161Z,33.90
2018-12-20T04:45:14.081Z,33.30
2018-12-20T04:46:14.079Z,32.50
2018-12-20T04:47:13.820Z,33.90
2018-12-20T04:48:13.809Z,31.50
2018-12-20T04:49:13.898Z,32.70
2018-12-20T04:50:13.794Z,32.30
2018-12-20T04:51:13.951Z,32.30
2018-12-20T04:52:14.053Z,31.70
2018-12-20T04:53:13.737Z,32.40
2018-12-20T04:54:14.032Z,32.80
2018-12-20T04:55:13.802Z,31.80
2018-12-20T04:56:13.844Z,31.90
2018-12-20T04:57:13.772Z,31.10
2018-12-20T04:58:13.838Z,32.20
2018-12-20T04:59:13.895Z,31.90
2018-12-20T05:00:13.830Z,32.90
2018-12-20T05:01:13.937Z,31.20
2018-12-20T05:02:13.958Z,33.00
2018-12-20T05:03:13.821Z,31.90
2018-12-20T05:04:13.821Z,32.90
2018-12-20T05:05:13.613Z,31.90
2018-12-20T05:06:13.599Z,33.40
2018-12-20T05:07:13.787Z,32.10
2018-12-20T05:08:13.784Z,31.40
2018-12-20T05:09:13.599Z,33.10
2018-12-20T05:10:13.622Z,32.50
2018-12-20T05:11:13.560Z,32.10
2018-12-20T05:12:13.601Z,32.90
2018-12-20T05:13:13.671Z,32.80
2018-12-20T05:14:13.555Z,32.60
2018-12-20T05:15:13.544Z,33.30
2018-12-20T05:16:13.616Z,32.50
2018-12-20T05:17:13.519Z,31.70
2018-12-20T05:18:13.620Z,32.80
2018-12-20T05:19:13.470Z,30.80
2018-12-20T05:20:13.615Z,31.40
2018-12-20T05:21:13.578Z,30.90
2018-12-20T05:22:13.743Z,33.10
2018-12-20T05:23:13.595Z,31.40
2018-12-20T05:24:13.514Z,31.40
2018-12-20T05:25:13.406Z,31.80
2018-12-20T05:26:13.586Z,32.30
2018-12-20T05:27:13.437Z,32.40
2018-12-20T05:28:13.391Z,31.60
2018-12-20T05:29:13.357Z,31.20
2018-12-20T05:30:13.374Z,32.00
2018-12-20T05:31:13.339Z,30.70
2018-12-20T05:32:13.321Z,33.90
2018-12-20T05:33:13.671Z,32.60
2018-12-20T05:34:13.310Z,33.40
2018-12-20T05:35:13.407Z,42.90
2018-12-20T05:36:13.585Z,33.40
2018-12-20T05:37:13.330Z,33.80
2018-12-20T05:38:13.297Z,34.70
2018-12-20T05:39:13.256Z,36.40
2018-12-20T05:40:13.329Z,35.40
2018-12-20T05:41:13.370Z,35.30
2018-12-20T05:42:13.394Z,34.10
2018-12-20T05:43:13.537Z,34.10
2018-12-20T05:44:13.493Z,33.30
2018-12-20T05:45:13.187Z,38.20
2018-12-20T05:46:13.208Z,32.40
2018-12-20T05:47:13.164Z,33.00
2018-12-20T05:48:13.716Z,33.30
2018-12-20T05:49:13.242Z,34.70
2018-12-20T05:50:13.211Z,32.10
2018-12-20T05:51:13.123Z,31.60
2018-12-20T05:52:13.118Z,31.20
2018-12-20T05:53:13.114Z,31.10
2018-12-20T05:54:13.267Z,31.20
2018-12-20T05:55:13.214Z,32.40
2018-12-20T05:56:13.081Z,31.80
2018-12-20T05:57:13.145Z,31.20
2018-12-20T05:58:13.062Z,31.80
2018-12-20T05:59:13.242Z,31.20
2018-12-20T06:00:13.206Z,32.50
2018-12-20T06:01:13.041Z,31.40
2018-12-20T06:02:21.198Z,30.10
2018-12-20T06:03:13.065Z,31.20
2018-12-20T06:04:12.999Z,31.00
2018-12-20T06:05:13.000Z,30.70
2018-12-20T06:06:13.186Z,31.90
2018-12-20T06:07:12.968Z,31.30
2018-12-20T06:08:12.945Z,30.90
2018-12-20T06:09:12.988Z,32.70
2018-12-20T06:10:12.947Z,30.90
2018-12-20T06:11:13.146Z,31.90
2018-12-20T06:12:12.921Z,31.60
2018-12-20T06:13:12.946Z,30.80
2018-12-20T06:14:12.967Z,30.50
2018-12-20T06:15:13.022Z,31.50
2018-12-20T06:16:13.292Z,31.90
2018-12-20T06:17:13.072Z,30.70
2018-12-20T06:18:12.839Z,31.90
2018-12-20T06:19:13.015Z,31.20
2018-12-20T06:20:12.850Z,31.80
2018-12-20T06:21:12.962Z,30.50
2018-12-20T06:22:12.986Z,33.30
2018-12-20T06:23:12.979Z,30.40
2018-12-20T06:24:12.799Z,31.70
2018-12-20T06:25:12.767Z,30.60
2018-12-20T06:26:12.769Z,32.50
2018-12-20T06:27:12.745Z,30.50
2018-12-20T06:28:12.739Z,31.10
2018-12-20T06:29:12.745Z,30.90
2018-12-20T06:30:12.718Z,31.10
2018-12-20T06:31:12.705Z,32.10
2018-12-20T06:32:12.695Z,30.10
2018-12-20T06:33:12.686Z,31.10
2018-12-20T06:34:12.691Z,30.90
2018-12-20T06:35:12.661Z,31.20
2018-12-20T06:36:12.678Z,31.70
2018-12-20T06:37:12.645Z,30.00
2018-12-20T06:38:12.753Z,31.50
2018-12-20T06:39:12.636Z,31.80
2018-12-20T06:40:12.614Z,31.30
2018-12-20T06:41:12.623Z,31.70
2018-12-20T06:42:12.585Z,32.20
2018-12-20T06:43:12.589Z,31.30
2018-12-20T06:44:12.571Z,31.10
2018-12-20T06:45:12.565Z,31.10
2018-12-20T06:46:20.901Z,29.80
2018-12-20T06:47:13.535Z,31.00
2018-12-20T06:48:12.523Z,31.90
2018-12-20T06:49:12.546Z,30.70
2018-12-20T06:50:12.510Z,32.10
2018-12-20T06:51:12.496Z,31.10
2018-12-20T06:52:12.508Z,32.40
2018-12-20T06:53:12.471Z,32.10
2018-12-20T06:54:12.478Z,30.30
2018-12-20T06:55:12.448Z,30.50
2018-12-20T06:56:12.444Z,31.40
2018-12-20T06:57:12.451Z,31.80
2018-12-20T06:58:12.414Z,31.00
2018-12-20T06:59:12.411Z,31.90
2018-12-20T07:00:12.400Z,29.00
2018-12-20T07:01:12.403Z,31.30
2018-12-20T07:02:12.412Z,31.20
2018-12-20T07:03:12.369Z,31.30
2018-12-20T07:04:12.390Z,29.90
2018-12-20T07:05:12.351Z,32.90
2018-12-20T07:06:12.333Z,31.10
2018-12-20T07:07:12.328Z,31.60
2018-12-20T07:08:12.450Z,32.00
2018-12-20T07:09:12.304Z,33.30
2018-12-20T07:10:12.296Z,32.30
2018-12-20T07:11:12.282Z,32.50
2018-12-20T07:12:12.269Z,31.50
2018-12-20T07:13:12.294Z,31.50
2018-12-20T07:14:12.258Z,31.00
2018-12-20T07:15:12.248Z,30.00
2018-12-20T07:16:12.231Z,31.00
2018-12-20T07:17:12.224Z,30.40
2018-12-20T07:18:12.229Z,30.80
2018-12-20T07:19:12.216Z,29.30
2018-12-20T07:20:12.219Z,31.20
2018-12-20T07:21:12.228Z,31.20
2018-12-20T07:22:12.166Z,30.20
2018-12-20T07:23:12.164Z,31.40
2018-12-20T07:24:12.165Z,30.90
2018-12-20T07:25:12.156Z,32.30
2018-12-20T07:26:12.132Z,31.30
2018-12-20T07:27:12.132Z,31.20
2018-12-20T07:28:12.104Z,31.20
2018-12-20T07:29:12.126Z,31.60
2018-12-20T07:30:12.098Z,31.50
2018-12-20T07:31:12.072Z,31.40
2018-12-20T07:32:12.069Z,31.50
2018-12-20T07:33:12.070Z,30.00
2018-12-20T07:34:12.190Z,30.50
2018-12-20T07:35:12.046Z,31.40
2018-12-20T07:36:12.030Z,31.50
2018-12-20T07:37:12.012Z,31.40
2018-12-20T07:38:12.008Z,30.60
2018-12-20T07:39:11.990Z,33.10
2018-12-20T07:40:11.990Z,31.00
2018-12-20T07:41:11.968Z,32.50
2018-12-20T07:42:11.958Z,31.00
2018-12-20T07:43:11.948Z,30.90
2018-12-20T07:44:11.955Z,32.60
2018-12-20T07:45:11.972Z,33.30
2018-12-20T07:46:11.918Z,32.20
2018-12-20T07:47:11.912Z,31.00
2018-12-20T07:48:11.905Z,31.80
2018-12-20T07:49:11.895Z,31.90
2018-12-20T07:50:11.898Z,31.10
2018-12-20T07:51:11.869Z,32.30
2018-12-20T07:52:11.856Z,32.60
2018-12-20T07:53:11.845Z,33.30
2018-12-20T07:54:11.829Z,33.40
2018-12-20T07:55:11.872Z,31.30
2018-12-20T07:56:11.824Z,31.30
2018-12-20T07:57:11.800Z,35.70
2018-12-20T07:58:11.786Z,33.40
2018-12-20T07:59:11.785Z,33.90
2018-12-20T08:00:11.768Z,32.00
2018-12-20T08:01:11.797Z,32.10
2018-12-20T08:02:11.772Z,33.10
2018-12-20T08:03:11.740Z,33.10
2018-12-20T08:04:11.724Z,34.10
2018-12-20T08:05:11.728Z,32.40
2018-12-20T08:06:11.728Z,33.60
2018-12-20T08:07:11.708Z,31.40
2018-12-20T08:08:11.702Z,33.20
2018-12-20T08:09:11.672Z,31.80
2018-12-20T08:10:11.660Z,32.90
2018-12-20T08:11:11.722Z,32.60
2018-12-20T08:12:11.662Z,31.60
2018-12-20T08:13:11.638Z,31.00
2018-12-20T08:14:11.624Z,32.30
2018-12-20T08:15:11.612Z,32.50
2018-12-20T08:16:11.620Z,32.80
2018-12-20T08:17:11.608Z,33.70
2018-12-20T08:18:11.582Z,31.10
2018-12-20T08:19:11.578Z,31.40
2018-12-20T08:20:11.560Z,32.30
2018-12-20T08:21:11.563Z,31.70
2018-12-20T08:22:11.536Z,34.30
2018-12-20T08:23:11.560Z,31.60
2018-12-20T08:24:11.524Z,32.40
2018-12-20T08:25:11.519Z,32.00
2018-12-20T08:26:11.537Z,30.90
2018-12-20T08:27:11.486Z,30.10
2018-12-20T08:28:11.474Z,30.90
2018-12-20T08:29:11.462Z,31.00
2018-12-20T08:30:11.470Z,31.30
2018-12-20T08:31:11.458Z,32.80
2018-12-20T08:32:11.465Z,32.20
2018-12-20T08:33:11.420Z,31.60
2018-12-20T08:34:11.413Z,31.60
2018-12-20T08:35:11.398Z,31.50
2018-12-20T08:36:11.404Z,30.80
2018-12-20T08:38:12.543Z,32.30
2018-12-20T08:39:11.359Z,29.60
2018-12-20T08:40:11.351Z,30.50
2018-12-20T08:41:11.340Z,31.30
2018-12-20T08:42:11.350Z,32.40
2018-12-20T08:43:11.329Z,31.80
2018-12-20T08:44:11.303Z,34.80
2018-12-20T08:45:11.297Z,34.20
2018-12-20T08:46:11.291Z,35.60
2018-12-20T08:47:11.306Z,34.20
2018-12-20T08:48:11.285Z,32.70
2018-12-20T08:49:11.252Z,32.50
2018-12-20T08:50:11.244Z,31.00
2018-12-20T08:51:11.239Z,31.30
2018-12-20T08:52:11.241Z,31.20
2018-12-20T08:53:11.210Z,30.80
2018-12-20T08:54:11.205Z,30.90
2018-12-20T08:55:11.189Z,30.80
2018-12-20T08:56:11.181Z,32.50
2018-12-20T08:57:11.202Z,31.00
2018-12-20T08:58:11.171Z,32.10
2018-12-20T08:59:11.152Z,31.70
2018-12-20T09:00:11.170Z,31.10
2018-12-20T09:01:11.128Z,31.70
2018-12-20T09:02:11.122Z,32.00
2018-12-20T09:03:11.140Z,31.50
2018-12-20T09:04:11.107Z,32.50
2018-12-20T09:05:11.083Z,31.80
2018-12-20T09:06:11.091Z,30.80
2018-12-20T09:07:11.104Z,32.30
2018-12-20T09:08:11.069Z,32.00
2018-12-20T09:09:11.041Z,31.50
2018-12-20T09:10:11.030Z,30.80
2018-12-20T09:11:11.024Z,31.00
2018-12-20T09:12:11.021Z,31.30
2018-12-20T09:13:11.029Z,33.30
2018-12-20T09:14:10.987Z,32.00
2018-12-20T09:15:10.981Z,31.40
2018-12-20T09:16:10.984Z,30.70
2018-12-20T09:17:10.971Z,30.10
2018-12-20T09:18:10.969Z,30.80
2018-12-20T09:19:10.934Z,30.00
2018-12-20T09:20:10.922Z,30.60
2018-12-20T09:21:10.912Z,30.60
2018-12-20T09:22:10.913Z,30.30
2018-12-20T09:23:10.914Z,30.30
2018-12-20T09:24:10.875Z,29.40
2018-12-20T09:25:10.868Z,30.90
2018-12-20T09:26:10.859Z,30.70
2018-12-20T09:27:10.850Z,30.10
2018-12-20T09:28:10.852Z,30.90
2018-12-20T09:29:10.831Z,29.10
2018-12-20T09:30:10.818Z,30.80
2018-12-20T09:31:10.811Z,28.90
2018-12-20T09:32:10.799Z,31.20
2018-12-20T09:33:10.801Z,30.10
2018-12-20T09:34:10.777Z,29.50
2018-12-20T09:35:10.767Z,31.00
2018-12-20T09:36:10.760Z,31.10
2018-12-20T09:37:10.745Z,31.00
2018-12-20T09:38:10.748Z,30.70
2018-12-20T09:39:10.730Z,30.80
2018-12-20T09:40:10.715Z,30.20
2018-12-20T09:41:10.710Z,29.30
2018-12-20T09:42:10.693Z,28.70
2018-12-20T09:43:10.714Z,30.50
2018-12-20T09:44:10.680Z,30.40
2018-12-20T09:45:10.716Z,32.10
2018-12-20T09:46:10.657Z,32.10
2018-12-20T09:47:11.787Z,36.90
2018-12-20T09:48:10.654Z,32.70
2018-12-20T09:49:10.615Z,31.50
2018-12-20T09:50:10.601Z,28.90
2018-12-20T09:51:10.597Z,30.30
2018-12-20T09:52:10.595Z,31.70
2018-12-20T09:53:10.597Z,30.80
2018-12-20T09:54:10.579Z,31.10
2018-12-20T09:55:10.549Z,29.70
2018-12-20T09:56:10.539Z,29.50
2018-12-20T09:57:10.529Z,29.70
2018-12-20T09:58:10.533Z,30.70
2018-12-20T09:59:10.526Z,29.60
2018-12-20T10:00:10.508Z,30.60
2018-12-20T10:01:10.489Z,29.80
2018-12-20T10:02:10.498Z,29.20
2018-12-20T10:03:10.469Z,30.50
2018-12-20T10:04:10.471Z,32.80
2018-12-20T10:05:10.445Z,31.10
2018-12-20T10:06:10.434Z,30.60
2018-12-20T10:07:10.433Z,30.80
2018-12-20T10:08:10.421Z,31.20
2018-12-20T10:09:10.445Z,30.70
2018-12-20T10:10:10.403Z,30.50
2018-12-20T10:11:10.381Z,30.70
2018-12-20T10:12:10.370Z,29.90
2018-12-20T10:13:10.371Z,30.80
2018-12-20T10:14:10.382Z,30.60
2018-12-20T10:15:10.346Z,31.10
2018-12-20T10:16:10.332Z,30.40
2018-12-20T10:17:10.319Z,31.40
2018-12-20T10:18:10.306Z,28.30
2018-12-20T10:19:10.318Z,30.30
2018-12-20T10:20:10.294Z,31.60
2018-12-20T10:21:10.277Z,31.20
2018-12-20T10:22:10.264Z,29.50
2018-12-20T10:23:10.255Z,32.10
2018-12-20T10:24:10.268Z,30.20
2018-12-20T10:25:10.233Z,30.80
2018-12-20T10:26:10.223Z,30.40
2018-12-20T10:27:10.217Z,29.60
2018-12-20T10:28:10.215Z,30.40
2018-12-20T10:29:10.219Z,29.80
2018-12-20T10:30:10.189Z,30.20
2018-12-20T10:31:10.169Z,29.70
2018-12-20T10:32:10.162Z,29.50
2018-12-20T10:33:10.157Z,31.90
2018-12-20T10:34:10.161Z,31.30
2018-12-20T10:35:10.127Z,29.50
2018-12-20T10:36:10.119Z,31.50
2018-12-20T10:37:10.105Z,31.00
2018-12-20T10:38:10.101Z,29.90
2018-12-20T10:39:10.122Z,29.90
2018-12-20T10:40:10.075Z,29.10
2018-12-20T10:41:10.065Z,29.90
2018-12-20T10:42:10.052Z,29.30
2018-12-20T10:43:10.048Z,30.00
2018-12-20T10:44:10.035Z,30.20
2018-12-20T10:45:10.046Z,27.90
2018-12-20T10:46:10.013Z,30.80
2018-12-20T10:47:09.994Z,29.30
2018-12-20T10:48:09.989Z,30.00
2018-12-20T10:49:09.986Z,28.80
2018-12-20T10:50:09.990Z,29.30
2018-12-20T10:51:09.957Z,29.00
2018-12-20T10:52:09.945Z,29.20
2018-12-20T10:53:09.938Z,29.40
2018-12-20T10:54:09.933Z,29.10
2018-12-20T10:55:09.931Z,28.90
2018-12-20T10:56:09.904Z,29.40
2018-12-20T10:57:09.895Z,29.00
2018-12-20T10:58:09.884Z,29.60
2018-12-20T10:59:09.890Z,27.80
2018-12-20T11:00:09.971Z,29.50
2018-12-20T11:01:09.854Z,28.50
2018-12-20T11:02:09.847Z,29.20
2018-12-20T11:03:09.838Z,29.20
2018-12-20T11:04:09.816Z,29.20
2018-12-20T11:05:09.829Z,28.50
2018-12-20T11:06:09.798Z,27.70
2018-12-20T11:07:09.792Z,29.60
2018-12-20T11:08:09.775Z,28.60
2018-12-20T11:09:09.769Z,31.60
2018-12-20T11:10:09.786Z,29.40
2018-12-20T11:11:09.742Z,30.70
2018-12-20T11:12:09.739Z,29.70
2018-12-20T11:13:09.721Z,29.50
2018-12-20T11:14:09.717Z,29.90
2018-12-20T11:15:09.719Z,28.50
2018-12-20T11:16:09.688Z,29.20
2018-12-20T11:17:09.678Z,28.90
2018-12-20T11:18:09.675Z,29.10
2018-12-20T11:19:09.657Z,30.40
2018-12-20T11:20:09.663Z,28.80
2018-12-20T11:21:09.638Z,28.50
2018-12-20T11:22:09.638Z,29.10
2018-12-20T11:23:09.613Z,29.10
2018-12-20T11:24:09.610Z,28.40
2018-12-20T11:26:10.650Z,29.20
2018-12-20T11:27:09.574Z,27.60
2018-12-20T11:28:09.560Z,28.90
2018-12-20T11:29:09.556Z,28.50
2018-12-20T11:30:09.563Z,29.20
2018-12-20T11:31:11.027Z,29.00
2018-12-20T11:32:09.528Z,28.60
2018-12-20T11:33:09.504Z,34.90
2018-12-20T11:34:09.497Z,34.80
2018-12-20T11:36:10.712Z,36.40
2018-12-20T11:37:09.637Z,29.50
2018-12-20T11:38:09.626Z,28.30
2018-12-20T11:39:09.614Z,29.60
2018-12-20T11:40:09.597Z,29.10
2018-12-20T11:41:09.612Z,28.40
2018-12-20T11:42:09.412Z,29.70
2018-12-20T11:43:09.409Z,28.60
2018-12-20T11:44:09.410Z,28.00
2018-12-20T11:45:09.391Z,27.70
2018-12-20T11:46:09.398Z,27.90
2018-12-20T11:47:09.364Z,28.00
2018-12-20T11:48:09.344Z,27.70
2018-12-20T11:49:09.347Z,28.50
2018-12-20T11:50:09.331Z,27.70
2018-12-20T11:51:09.330Z,29.10
2018-12-20T11:52:09.316Z,29.30
2018-12-20T11:53:09.299Z,30.30
2018-12-20T11:54:09.287Z,27.60
2018-12-20T11:55:09.276Z,30.20
2018-12-20T11:56:09.293Z,28.90
2018-12-20T11:57:09.253Z,28.40
2018-12-20T11:58:09.246Z,28.20
2018-12-20T11:59:09.230Z,29.00
2018-12-20T12:00:09.222Z,27.30
2018-12-20T12:01:09.243Z,27.20
2018-12-20T12:02:09.207Z,26.80
2018-12-20T12:03:09.196Z,26.10
2018-12-20T12:04:09.185Z,28.10
2018-12-20T12:05:09.166Z,29.20
2018-12-20T12:06:09.165Z,28.50
2018-12-20T12:07:09.198Z,26.20
2018-12-20T12:08:09.134Z,27.20
2018-12-20T12:09:09.127Z,27.20
2018-12-20T12:10:09.156Z,27.00
2018-12-20T12:11:09.107Z,26.40
2018-12-20T12:12:09.110Z,27.60
2018-12-20T12:13:09.088Z,28.50
2018-12-20T12:14:09.094Z,27.50
2018-12-20T12:15:09.063Z,28.10
2018-12-20T12:16:09.063Z,28.20
2018-12-20T12:17:09.076Z,25.90
2018-12-20T12:18:09.028Z,26.80
2018-12-20T12:19:09.028Z,27.40
2018-12-20T12:20:09.006Z,26.40
2018-12-20T12:21:09.000Z,25.60
2018-12-20T12:22:09.012Z,25.80
2018-12-20T12:23:08.984Z,26.10
2018-12-20T12:24:08.972Z,27.10
2018-12-20T12:25:08.975Z,26.50
2018-12-20T12:26:08.947Z,26.80
2018-12-20T12:27:08.948Z,25.20
2018-12-20T12:28:08.942Z,26.90
2018-12-20T12:29:08.911Z,24.50
2018-12-20T12:30:08.901Z,26.30
2018-12-20T12:31:08.914Z,25.40
2018-12-20T12:32:08.902Z,25.70
2018-12-20T12:33:08.868Z,24.90
2018-12-20T12:34:08.877Z,25.40
2018-12-20T12:35:08.846Z,24.70
2018-12-20T12:36:08.858Z,26.20
2018-12-20T12:37:08.845Z,24.60
2018-12-20T12:38:08.817Z,24.50
2018-12-20T12:39:08.804Z,24.40
2018-12-20T12:40:08.800Z,26.30
2018-12-20T12:41:08.778Z,26.60
2018-12-20T12:42:08.798Z,25.20
2018-12-20T12:43:08.762Z,24.90
2018-12-20T12:44:09.473Z,25.40
2018-12-20T12:45:08.750Z,25.70
2018-12-20T12:46:08.730Z,24.80
2018-12-20T12:47:08.748Z,25.40
2018-12-20T12:48:08.718Z,25.40
2018-12-20T12:49:08.697Z,24.80
2018-12-20T12:50:08.685Z,26.00
2018-12-20T12:51:08.672Z,26.00
2018-12-20T12:52:08.706Z,25.50
2018-12-20T12:53:08.666Z,24.50
2018-12-20T12:54:08.650Z,24.70
2018-12-20T12:55:08.634Z,24.30